sensor_id;sensor_type;location;lat;lon;timestamp;P1;durP1;ratioP1;P2;durP2;ratioP2
485;SDS011;229;48.734;9.340;2024-01-30T00:00:19;12.57;;;9.73;;
485;SDS011;229;48.734;9.340;2024-01-30T00:02:46;14.25;;;10.20;;
485;SDS011;229;48.734;9.340;2024-01-30T00:05:14;12.20;;;9.02;;
485;SDS011;229;48.734;9.340;2024-01-30T00:07:41;13.07;;;9.60;;
485;SDS011;229;48.734;9.340;2024-01-30T00:10:08;14.82;;;10.50;;
485;SDS011;229;48.734;9.340;2024-01-30T00:12:35;15.80;;;9.57;;
485;SDS011;229;48.734;9.340;2024-01-30T00:15:04;16.73;;;10.50;;
485;SDS011;229;48.734;9.340;2024-01-30T00:17:34;17.48;;;11.25;;
485;SDS011;229;48.734;9.340;2024-01-30T00:20:01;14.25;;;9.70;;
485;SDS011;229;48.734;9.340;2024-01-30T00:22:30;15.38;;;10.30;;
485;SDS011;229;48.734;9.340;2024-01-30T00:24:57;14.07;;;9.52;;
485;SDS011;229;48.734;9.340;2024-01-30T00:27:25;15.15;;;10.32;;
485;SDS011;229;48.734;9.340;2024-01-30T00:29:52;16.35;;;10.38;;
485;SDS011;229;48.734;9.340;2024-01-30T00:32:21;16.48;;;11.20;;
485;SDS011;229;48.734;9.340;2024-01-30T00:34:49;16.30;;;11.88;;
485;SDS011;229;48.734;9.340;2024-01-30T00:37:16;14.18;;;11.07;;
485;SDS011;229;48.734;9.340;2024-01-30T00:39:43;17.38;;;11.35;;
485;SDS011;229;48.734;9.340;2024-01-30T00:42:10;20.73;;;11.60;;
485;SDS011;229;48.734;9.340;2024-01-30T00:44:38;19.88;;;12.90;;
485;SDS011;229;48.734;9.340;2024-01-30T00:47:05;18.77;;;12.25;;
485;SDS011;229;48.734;9.340;2024-01-30T00:49:33;17.65;;;13.10;;
485;SDS011;229;48.734;9.340;2024-01-30T00:52:01;21.65;;;14.98;;
485;SDS011;229;48.734;9.340;2024-01-30T00:54:28;18.65;;;12.73;;
485;SDS011;229;48.734;9.340;2024-01-30T00:56:55;17.40;;;11.85;;
485;SDS011;229;48.734;9.340;2024-01-30T00:59:23;16.23;;;9.88;;
485;SDS011;229;48.734;9.340;2024-01-30T01:01:50;12.40;;;9.82;;
485;SDS011;229;48.734;9.340;2024-01-30T01:04:17;11.07;;;9.30;;
485;SDS011;229;48.734;9.340;2024-01-30T01:06:47;11.65;;;8.98;;
485;SDS011;229;48.734;9.340;2024-01-30T01:09:15;13.80;;;10.18;;
485;SDS011;229;48.734;9.340;2024-01-30T01:11:42;14.00;;;9.50;;
485;SDS011;229;48.734;9.340;2024-01-30T01:14:09;11.50;;;9.13;;
485;SDS011;229;48.734;9.340;2024-01-30T01:16:36;13.48;;;9.63;;
485;SDS011;229;48.734;9.340;2024-01-30T01:19:04;14.45;;;9.32;;
485;SDS011;229;48.734;9.340;2024-01-30T01:21:31;14.73;;;9.63;;
485;SDS011;229;48.734;9.340;2024-01-30T01:23:59;13.15;;;9.68;;
485;SDS011;229;48.734;9.340;2024-01-30T01:26:26;15.73;;;10.70;;
485;SDS011;229;48.734;9.340;2024-01-30T01:28:54;15.13;;;10.43;;
485;SDS011;229;48.734;9.340;2024-01-30T01:31:21;11.20;;;9.43;;
485;SDS011;229;48.734;9.340;2024-01-30T01:33:49;14.38;;;9.70;;
485;SDS011;229;48.734;9.340;2024-01-30T01:36:17;16.80;;;11.02;;
485;SDS011;229;48.734;9.340;2024-01-30T01:38:44;13.82;;;10.27;;
485;SDS011;229;48.734;9.340;2024-01-30T01:41:13;14.77;;;9.65;;
485;SDS011;229;48.734;9.340;2024-01-30T01:43:40;15.35;;;9.65;;
485;SDS011;229;48.734;9.340;2024-01-30T01:46:07;12.27;;;9.23;;
485;SDS011;229;48.734;9.340;2024-01-30T01:48:35;15.77;;;10.05;;
485;SDS011;229;48.734;9.340;2024-01-30T01:51:04;17.10;;;11.07;;
485;SDS011;229;48.734;9.340;2024-01-30T01:53:32;14.07;;;11.20;;
485;SDS011;229;48.734;9.340;2024-01-30T01:55:59;12.20;;;9.40;;
485;SDS011;229;48.734;9.340;2024-01-30T01:58:28;13.88;;;10.65;;
485;SDS011;229;48.734;9.340;2024-01-30T02:00:56;17.58;;;11.73;;
485;SDS011;229;48.734;9.340;2024-01-30T02:03:24;18.33;;;11.73;;
485;SDS011;229;48.734;9.340;2024-01-30T02:05:52;18.38;;;11.02;;
485;SDS011;229;48.734;9.340;2024-01-30T02:08:19;15.80;;;11.30;;
485;SDS011;229;48.734;9.340;2024-01-30T02:10:47;21.00;;;12.10;;
485;SDS011;229;48.734;9.340;2024-01-30T02:13:14;14.10;;;11.25;;
485;SDS011;229;48.734;9.340;2024-01-30T02:15:42;12.77;;;10.77;;
485;SDS011;229;48.734;9.340;2024-01-30T02:18:09;16.65;;;11.40;;
485;SDS011;229;48.734;9.340;2024-01-30T02:20:36;14.18;;;11.13;;
485;SDS011;229;48.734;9.340;2024-01-30T02:23:06;16.98;;;11.65;;
485;SDS011;229;48.734;9.340;2024-01-30T02:25:35;14.73;;;11.00;;
485;SDS011;229;48.734;9.340;2024-01-30T02:28:03;15.85;;;12.20;;
485;SDS011;229;48.734;9.340;2024-01-30T02:30:30;14.48;;;11.45;;
485;SDS011;229;48.734;9.340;2024-01-30T02:32:57;15.40;;;11.43;;
485;SDS011;229;48.734;9.340;2024-01-30T02:35:24;14.48;;;10.93;;
485;SDS011;229;48.734;9.340;2024-01-30T02:37:52;15.93;;;10.85;;
485;SDS011;229;48.734;9.340;2024-01-30T02:40:20;15.95;;;11.45;;
485;SDS011;229;48.734;9.340;2024-01-30T02:42:47;16.05;;;11.43;;
485;SDS011;229;48.734;9.340;2024-01-30T02:45:15;16.63;;;11.45;;
485;SDS011;229;48.734;9.340;2024-01-30T02:47:42;16.58;;;12.40;;
485;SDS011;229;48.734;9.340;2024-01-30T02:50:09;16.75;;;11.40;;
485;SDS011;229;48.734;9.340;2024-01-30T02:52:36;16.90;;;12.13;;
485;SDS011;229;48.734;9.340;2024-01-30T02:55:04;16.52;;;11.57;;
485;SDS011;229;48.734;9.340;2024-01-30T02:57:32;17.15;;;11.18;;
485;SDS011;229;48.734;9.340;2024-01-30T03:00:00;15.32;;;11.07;;
485;SDS011;229;48.734;9.340;2024-01-30T03:02:29;13.30;;;10.80;;
485;SDS011;229;48.734;9.340;2024-01-30T03:04:56;19.08;;;10.93;;
485;SDS011;229;48.734;9.340;2024-01-30T03:09:50;18.70;;;11.57;;
485;SDS011;229;48.734;9.340;2024-01-30T03:12:17;14.18;;;11.75;;
485;SDS011;229;48.734;9.340;2024-01-30T03:14:46;18.15;;;11.18;;
485;SDS011;229;48.734;9.340;2024-01-30T03:17:13;16.20;;;10.90;;
485;SDS011;229;48.734;9.340;2024-01-30T03:19:40;18.02;;;11.52;;
485;SDS011;229;48.734;9.340;2024-01-30T03:22:07;16.75;;;11.93;;
485;SDS011;229;48.734;9.340;2024-01-30T03:24:34;15.23;;;11.55;;
485;SDS011;229;48.734;9.340;2024-01-30T03:27:02;15.00;;;11.70;;
485;SDS011;229;48.734;9.340;2024-01-30T03:29:29;20.15;;;12.60;;
485;SDS011;229;48.734;9.340;2024-01-30T03:31:57;19.67;;;12.50;;
485;SDS011;229;48.734;9.340;2024-01-30T03:34:25;15.45;;;12.38;;
485;SDS011;229;48.734;9.340;2024-01-30T03:36:52;16.85;;;13.43;;
485;SDS011;229;48.734;9.340;2024-01-30T03:39:19;18.15;;;12.77;;
485;SDS011;229;48.734;9.340;2024-01-30T03:41:46;15.23;;;12.40;;
485;SDS011;229;48.734;9.340;2024-01-30T03:44:13;16.88;;;12.82;;
485;SDS011;229;48.734;9.340;2024-01-30T03:46:40;19.05;;;13.00;;
485;SDS011;229;48.734;9.340;2024-01-30T03:49:09;25.45;;;14.50;;
485;SDS011;229;48.734;9.340;2024-01-30T03:51:36;16.17;;;11.80;;
485;SDS011;229;48.734;9.340;2024-01-30T03:54:04;17.77;;;12.50;;
485;SDS011;229;48.734;9.340;2024-01-30T03:56:32;17.10;;;11.75;;
485;SDS011;229;48.734;9.340;2024-01-30T03:58:59;17.80;;;12.38;;
485;SDS011;229;48.734;9.340;2024-01-30T04:01:27;17.60;;;12.98;;
485;SDS011;229;48.734;9.340;2024-01-30T04:03:55;17.98;;;12.30;;
485;SDS011;229;48.734;9.340;2024-01-30T04:06:23;18.17;;;12.57;;
485;SDS011;229;48.734;9.340;2024-01-30T04:08:50;16.52;;;12.32;;
485;SDS011;229;48.734;9.340;2024-01-30T04:11:18;16.40;;;12.57;;
485;SDS011;229;48.734;9.340;2024-01-30T04:13:45;17.90;;;12.30;;
485;SDS011;229;48.734;9.340;2024-01-30T04:16:18;16.80;;;12.40;;
485;SDS011;229;48.734;9.340;2024-01-30T04:18:46;17.60;;;12.30;;
485;SDS011;229;48.734;9.340;2024-01-30T04:21:13;19.10;;;12.80;;
485;SDS011;229;48.734;9.340;2024-01-30T04:23:41;18.65;;;13.43;;
485;SDS011;229;48.734;9.340;2024-01-30T04:26:09;19.13;;;13.00;;
485;SDS011;229;48.734;9.340;2024-01-30T04:28:36;18.10;;;12.93;;
485;SDS011;229;48.734;9.340;2024-01-30T04:31:03;15.07;;;11.60;;
485;SDS011;229;48.734;9.340;2024-01-30T04:33:30;15.10;;;12.30;;
485;SDS011;229;48.734;9.340;2024-01-30T04:35:57;15.82;;;11.50;;
485;SDS011;229;48.734;9.340;2024-01-30T04:38:25;18.30;;;12.55;;
485;SDS011;229;48.734;9.340;2024-01-30T04:40:53;18.65;;;12.85;;
485;SDS011;229;48.734;9.340;2024-01-30T04:43:20;16.73;;;13.00;;
485;SDS011;229;48.734;9.340;2024-01-30T04:45:48;17.27;;;12.40;;
485;SDS011;229;48.734;9.340;2024-01-30T04:48:15;18.90;;;13.68;;
485;SDS011;229;48.734;9.340;2024-01-30T04:50:43;17.63;;;13.52;;
485;SDS011;229;48.734;9.340;2024-01-30T04:53:10;18.10;;;12.15;;
485;SDS011;229;48.734;9.340;2024-01-30T04:55:37;17.65;;;11.75;;
485;SDS011;229;48.734;9.340;2024-01-30T04:58:05;16.00;;;11.60;;
485;SDS011;229;48.734;9.340;2024-01-30T05:00:33;16.52;;;11.75;;
485;SDS011;229;48.734;9.340;2024-01-30T05:03:00;16.15;;;11.82;;
485;SDS011;229;48.734;9.340;2024-01-30T05:05:27;19.27;;;12.80;;
485;SDS011;229;48.734;9.340;2024-01-30T05:07:54;17.52;;;12.25;;
485;SDS011;229;48.734;9.340;2024-01-30T05:10:21;16.25;;;12.50;;
485;SDS011;229;48.734;9.340;2024-01-30T05:12:48;15.70;;;10.80;;
485;SDS011;229;48.734;9.340;2024-01-30T05:15:17;19.42;;;12.45;;
485;SDS011;229;48.734;9.340;2024-01-30T05:17:44;18.38;;;12.10;;
485;SDS011;229;48.734;9.340;2024-01-30T05:20:12;15.93;;;12.15;;
485;SDS011;229;48.734;9.340;2024-01-30T05:22:39;18.98;;;12.30;;
485;SDS011;229;48.734;9.340;2024-01-30T05:25:10;17.23;;;12.40;;
485;SDS011;229;48.734;9.340;2024-01-30T05:27:37;18.35;;;12.23;;
485;SDS011;229;48.734;9.340;2024-01-30T05:30:05;15.73;;;12.60;;
485;SDS011;229;48.734;9.340;2024-01-30T05:32:34;16.77;;;12.10;;
485;SDS011;229;48.734;9.340;2024-01-30T05:35:01;17.77;;;13.00;;
485;SDS011;229;48.734;9.340;2024-01-30T05:37:28;19.50;;;12.27;;
485;SDS011;229;48.734;9.340;2024-01-30T05:39:55;14.32;;;11.60;;
485;SDS011;229;48.734;9.340;2024-01-30T05:42:22;15.48;;;11.32;;
485;SDS011;229;48.734;9.340;2024-01-30T05:44:50;16.77;;;11.95;;
485;SDS011;229;48.734;9.340;2024-01-30T05:47:17;17.23;;;12.60;;
485;SDS011;229;48.734;9.340;2024-01-30T05:49:45;17.58;;;12.70;;
485;SDS011;229;48.734;9.340;2024-01-30T05:52:13;15.52;;;12.18;;
485;SDS011;229;48.734;9.340;2024-01-30T05:54:41;16.55;;;12.35;;
485;SDS011;229;48.734;9.340;2024-01-30T05:57:08;17.13;;;12.73;;
485;SDS011;229;48.734;9.340;2024-01-30T05:59:36;20.58;;;13.52;;
485;SDS011;229;48.734;9.340;2024-01-30T06:02:03;16.65;;;11.40;;
485;SDS011;229;48.734;9.340;2024-01-30T06:04:30;18.17;;;12.07;;
485;SDS011;229;48.734;9.340;2024-01-30T06:06:59;22.58;;;12.45;;
485;SDS011;229;48.734;9.340;2024-01-30T06:09:27;19.92;;;12.15;;
485;SDS011;229;48.734;9.340;2024-01-30T06:11:54;16.08;;;11.45;;
485;SDS011;229;48.734;9.340;2024-01-30T06:14:21;14.85;;;11.55;;
485;SDS011;229;48.734;9.340;2024-01-30T06:16:49;14.77;;;11.57;;
485;SDS011;229;48.734;9.340;2024-01-30T06:19:16;14.68;;;11.70;;
485;SDS011;229;48.734;9.340;2024-01-30T06:21:43;18.65;;;12.38;;
485;SDS011;229;48.734;9.340;2024-01-30T06:24:12;17.10;;;12.73;;
485;SDS011;229;48.734;9.340;2024-01-30T06:26:39;20.90;;;13.90;;
485;SDS011;229;48.734;9.340;2024-01-30T06:29:07;16.73;;;13.15;;
485;SDS011;229;48.734;9.340;2024-01-30T06:31:39;16.88;;;12.27;;
485;SDS011;229;48.734;9.340;2024-01-30T06:34:06;18.55;;;12.07;;
485;SDS011;229;48.734;9.340;2024-01-30T06:36:33;23.80;;;12.13;;
485;SDS011;229;48.734;9.340;2024-01-30T06:39:00;15.30;;;11.68;;
485;SDS011;229;48.734;9.340;2024-01-30T06:41:29;15.57;;;11.77;;
485;SDS011;229;48.734;9.340;2024-01-30T06:43:56;18.10;;;13.40;;
485;SDS011;229;48.734;9.340;2024-01-30T06:46:23;15.98;;;11.95;;
485;SDS011;229;48.734;9.340;2024-01-30T06:48:51;19.63;;;13.48;;
485;SDS011;229;48.734;9.340;2024-01-30T06:51:18;22.67;;;14.13;;
485;SDS011;229;48.734;9.340;2024-01-30T06:53:45;18.23;;;12.73;;
485;SDS011;229;48.734;9.340;2024-01-30T06:56:12;17.70;;;13.20;;
485;SDS011;229;48.734;9.340;2024-01-30T06:58:41;21.13;;;13.75;;
485;SDS011;229;48.734;9.340;2024-01-30T07:01:08;17.98;;;13.65;;
485;SDS011;229;48.734;9.340;2024-01-30T07:03:35;20.88;;;14.23;;
485;SDS011;229;48.734;9.340;2024-01-30T07:06:02;18.95;;;14.30;;
485;SDS011;229;48.734;9.340;2024-01-30T07:08:29;18.00;;;13.85;;
485;SDS011;229;48.734;9.340;2024-01-30T07:10:57;15.13;;;13.07;;
485;SDS011;229;48.734;9.340;2024-01-30T07:13:24;16.33;;;13.52;;
485;SDS011;229;48.734;9.340;2024-01-30T07:15:53;18.45;;;14.30;;
485;SDS011;229;48.734;9.340;2024-01-30T07:18:20;19.27;;;13.95;;
485;SDS011;229;48.734;9.340;2024-01-30T07:20:47;17.42;;;13.15;;
485;SDS011;229;48.734;9.340;2024-01-30T07:23:15;19.75;;;14.88;;
485;SDS011;229;48.734;9.340;2024-01-30T07:25:43;20.98;;;13.85;;
485;SDS011;229;48.734;9.340;2024-01-30T07:28:10;19.30;;;13.43;;
485;SDS011;229;48.734;9.340;2024-01-30T07:30:38;17.77;;;13.75;;
485;SDS011;229;48.734;9.340;2024-01-30T07:33:07;19.55;;;14.00;;
485;SDS011;229;48.734;9.340;2024-01-30T07:35:34;18.52;;;13.40;;
485;SDS011;229;48.734;9.340;2024-01-30T07:38:02;16.17;;;12.93;;
485;SDS011;229;48.734;9.340;2024-01-30T07:40:29;21.40;;;13.88;;
485;SDS011;229;48.734;9.340;2024-01-30T07:42:58;18.95;;;13.55;;
485;SDS011;229;48.734;9.340;2024-01-30T07:45:25;19.52;;;14.80;;
485;SDS011;229;48.734;9.340;2024-01-30T07:47:57;18.52;;;14.25;;
485;SDS011;229;48.734;9.340;2024-01-30T07:50:26;23.00;;;14.55;;
485;SDS011;229;48.734;9.340;2024-01-30T07:52:55;21.30;;;14.20;;
485;SDS011;229;48.734;9.340;2024-01-30T07:55:22;18.45;;;13.68;;
485;SDS011;229;48.734;9.340;2024-01-30T07:57:52;20.25;;;13.80;;
485;SDS011;229;48.734;9.340;2024-01-30T08:00:20;20.23;;;12.88;;
485;SDS011;229;48.734;9.340;2024-01-30T08:02:47;20.00;;;14.45;;
485;SDS011;229;48.734;9.340;2024-01-30T08:05:14;22.23;;;15.40;;
485;SDS011;229;48.734;9.340;2024-01-30T08:07:43;19.35;;;13.65;;
485;SDS011;229;48.734;9.340;2024-01-30T08:10:11;18.23;;;13.95;;
485;SDS011;229;48.734;9.340;2024-01-30T08:12:38;26.17;;;18.63;;
485;SDS011;229;48.734;9.340;2024-01-30T08:15:05;23.63;;;16.00;;
485;SDS011;229;48.734;9.340;2024-01-30T08:17:33;24.77;;;15.68;;
485;SDS011;229;48.734;9.340;2024-01-30T08:20:00;20.90;;;15.35;;
485;SDS011;229;48.734;9.340;2024-01-30T08:22:29;30.48;;;18.90;;
485;SDS011;229;48.734;9.340;2024-01-30T08:24:58;24.15;;;16.95;;
485;SDS011;229;48.734;9.340;2024-01-30T08:27:25;39.45;;;21.50;;
485;SDS011;229;48.734;9.340;2024-01-30T08:29:52;32.33;;;18.02;;
485;SDS011;229;48.734;9.340;2024-01-30T08:32:20;32.53;;;20.10;;
485;SDS011;229;48.734;9.340;2024-01-30T08:34:47;28.38;;;19.75;;
485;SDS011;229;48.734;9.340;2024-01-30T08:37:14;37.63;;;20.77;;
485;SDS011;229;48.734;9.340;2024-01-30T08:39:42;39.00;;;20.75;;
485;SDS011;229;48.734;9.340;2024-01-30T08:42:10;33.22;;;19.55;;
485;SDS011;229;48.734;9.340;2024-01-30T08:44:37;37.53;;;18.98;;
485;SDS011;229;48.734;9.340;2024-01-30T08:47:05;37.05;;;19.80;;
485;SDS011;229;48.734;9.340;2024-01-30T08:49:32;33.90;;;17.83;;
485;SDS011;229;48.734;9.340;2024-01-30T08:51:59;42.42;;;18.88;;
485;SDS011;229;48.734;9.340;2024-01-30T08:54:26;33.90;;;18.13;;
485;SDS011;229;48.734;9.340;2024-01-30T08:56:53;35.35;;;17.85;;
485;SDS011;229;48.734;9.340;2024-01-30T08:59:23;27.60;;;15.93;;
485;SDS011;229;48.734;9.340;2024-01-30T09:01:50;27.63;;;15.82;;
485;SDS011;229;48.734;9.340;2024-01-30T09:04:20;21.65;;;12.98;;
485;SDS011;229;48.734;9.340;2024-01-30T09:06:47;21.88;;;11.75;;
485;SDS011;229;48.734;9.340;2024-01-30T09:09:14;20.10;;;12.80;;
485;SDS011;229;48.734;9.340;2024-01-30T09:11:42;20.25;;;11.80;;
485;SDS011;229;48.734;9.340;2024-01-30T09:14:09;19.30;;;11.57;;
485;SDS011;229;48.734;9.340;2024-01-30T09:16:38;15.73;;;11.38;;
485;SDS011;229;48.734;9.340;2024-01-30T09:19:05;20.70;;;12.82;;
485;SDS011;229;48.734;9.340;2024-01-30T09:21:32;19.75;;;12.38;;
485;SDS011;229;48.734;9.340;2024-01-30T09:24:01;23.30;;;12.75;;
485;SDS011;229;48.734;9.340;2024-01-30T09:26:29;19.23;;;12.85;;
485;SDS011;229;48.734;9.340;2024-01-30T09:28:56;21.45;;;14.05;;
485;SDS011;229;48.734;9.340;2024-01-30T09:31:23;22.92;;;13.98;;
485;SDS011;229;48.734;9.340;2024-01-30T09:33:51;23.17;;;13.32;;
485;SDS011;229;48.734;9.340;2024-01-30T09:36:19;26.30;;;14.95;;
485;SDS011;229;48.734;9.340;2024-01-30T09:38:47;20.40;;;12.95;;
485;SDS011;229;48.734;9.340;2024-01-30T09:41:14;18.10;;;12.25;;
485;SDS011;229;48.734;9.340;2024-01-30T09:43:41;15.98;;;11.60;;
485;SDS011;229;48.734;9.340;2024-01-30T09:46:11;17.02;;;11.52;;
485;SDS011;229;48.734;9.340;2024-01-30T09:48:39;17.40;;;12.25;;
485;SDS011;229;48.734;9.340;2024-01-30T09:51:09;20.75;;;11.57;;
485;SDS011;229;48.734;9.340;2024-01-30T09:53:37;16.67;;;12.05;;
485;SDS011;229;48.734;9.340;2024-01-30T09:56:04;17.55;;;11.77;;
485;SDS011;229;48.734;9.340;2024-01-30T09:58:32;18.48;;;11.35;;
485;SDS011;229;48.734;9.340;2024-01-30T10:01:00;18.73;;;11.23;;
485;SDS011;229;48.734;9.340;2024-01-30T10:03:27;24.10;;;14.48;;
485;SDS011;229;48.734;9.340;2024-01-30T10:05:54;16.55;;;11.95;;
485;SDS011;229;48.734;9.340;2024-01-30T10:08:23;15.63;;;11.13;;
485;SDS011;229;48.734;9.340;2024-01-30T10:10:50;17.23;;;12.00;;
485;SDS011;229;48.734;9.340;2024-01-30T10:13:17;25.45;;;15.10;;
485;SDS011;229;48.734;9.340;2024-01-30T10:15:45;17.63;;;11.35;;
485;SDS011;229;48.734;9.340;2024-01-30T10:18:12;17.10;;;10.98;;
485;SDS011;229;48.734;9.340;2024-01-30T10:20:39;15.73;;;10.15;;
485;SDS011;229;48.734;9.340;2024-01-30T10:23:06;16.83;;;10.88;;
485;SDS011;229;48.734;9.340;2024-01-30T10:25:35;22.20;;;12.52;;
485;SDS011;229;48.734;9.340;2024-01-30T10:28:02;20.15;;;12.48;;
485;SDS011;229;48.734;9.340;2024-01-30T10:30:29;16.15;;;11.10;;
485;SDS011;229;48.734;9.340;2024-01-30T10:32:56;22.42;;;11.90;;
485;SDS011;229;48.734;9.340;2024-01-30T10:35:23;17.83;;;11.48;;
485;SDS011;229;48.734;9.340;2024-01-30T10:37:51;19.17;;;11.90;;
485;SDS011;229;48.734;9.340;2024-01-30T10:40:18;19.25;;;12.95;;
485;SDS011;229;48.734;9.340;2024-01-30T10:42:50;16.33;;;11.40;;
485;SDS011;229;48.734;9.340;2024-01-30T10:45:20;19.02;;;11.60;;
485;SDS011;229;48.734;9.340;2024-01-30T10:47:48;21.80;;;10.98;;
485;SDS011;229;48.734;9.340;2024-01-30T10:50:16;21.67;;;12.65;;
485;SDS011;229;48.734;9.340;2024-01-30T10:52:43;28.40;;;12.73;;
485;SDS011;229;48.734;9.340;2024-01-30T10:55:11;25.67;;;12.43;;
485;SDS011;229;48.734;9.340;2024-01-30T10:57:39;19.02;;;12.40;;
485;SDS011;229;48.734;9.340;2024-01-30T11:00:08;21.63;;;12.02;;
485;SDS011;229;48.734;9.340;2024-01-30T11:02:37;18.52;;;13.02;;
485;SDS011;229;48.734;9.340;2024-01-30T11:05:05;18.13;;;13.10;;
485;SDS011;229;48.734;9.340;2024-01-30T11:07:33;24.90;;;12.75;;
485;SDS011;229;48.734;9.340;2024-01-30T11:10:01;21.83;;;13.10;;
485;SDS011;229;48.734;9.340;2024-01-30T11:12:29;19.33;;;12.23;;
485;SDS011;229;48.734;9.340;2024-01-30T11:15:01;24.50;;;12.95;;
485;SDS011;229;48.734;9.340;2024-01-30T11:17:40;21.75;;;11.95;;
485;SDS011;229;48.734;9.340;2024-01-30T11:20:09;22.95;;;11.02;;
485;SDS011;229;48.734;9.340;2024-01-30T11:22:37;21.30;;;11.88;;
485;SDS011;229;48.734;9.340;2024-01-30T11:25:04;17.88;;;11.00;;
485;SDS011;229;48.734;9.340;2024-01-30T11:27:33;22.67;;;12.05;;
485;SDS011;229;48.734;9.340;2024-01-30T11:30:01;17.38;;;11.55;;
485;SDS011;229;48.734;9.340;2024-01-30T11:32:28;20.58;;;12.20;;
485;SDS011;229;48.734;9.340;2024-01-30T11:34:57;18.15;;;11.40;;
485;SDS011;229;48.734;9.340;2024-01-30T11:37:24;19.60;;;10.32;;
485;SDS011;229;48.734;9.340;2024-01-30T11:39:52;23.45;;;10.55;;
485;SDS011;229;48.734;9.340;2024-01-30T11:42:23;19.10;;;10.55;;
485;SDS011;229;48.734;9.340;2024-01-30T11:44:51;16.15;;;10.25;;
485;SDS011;229;48.734;9.340;2024-01-30T11:47:18;20.35;;;11.35;;
485;SDS011;229;48.734;9.340;2024-01-30T11:49:45;17.23;;;10.25;;
485;SDS011;229;48.734;9.340;2024-01-30T11:52:13;16.77;;;10.40;;
485;SDS011;229;48.734;9.340;2024-01-30T11:54:41;19.33;;;11.73;;
485;SDS011;229;48.734;9.340;2024-01-30T11:57:08;21.77;;;11.27;;
485;SDS011;229;48.734;9.340;2024-01-30T11:59:35;13.65;;;10.48;;
485;SDS011;229;48.734;9.340;2024-01-30T12:02:03;17.73;;;10.68;;
485;SDS011;229;48.734;9.340;2024-01-30T12:04:30;25.50;;;11.07;;
485;SDS011;229;48.734;9.340;2024-01-30T12:06:57;24.17;;;13.55;;
485;SDS011;229;48.734;9.340;2024-01-30T12:09:26;18.58;;;12.13;;
485;SDS011;229;48.734;9.340;2024-01-30T12:11:53;16.13;;;10.32;;
485;SDS011;229;48.734;9.340;2024-01-30T12:14:20;25.80;;;11.25;;
485;SDS011;229;48.734;9.340;2024-01-30T12:16:50;20.55;;;12.45;;
485;SDS011;229;48.734;9.340;2024-01-30T12:19:23;20.50;;;11.05;;
485;SDS011;229;48.734;9.340;2024-01-30T12:21:53;17.88;;;12.40;;
485;SDS011;229;48.734;9.340;2024-01-30T12:24:21;23.70;;;12.40;;
485;SDS011;229;48.734;9.340;2024-01-30T12:26:50;19.65;;;11.80;;
485;SDS011;229;48.734;9.340;2024-01-30T12:29:18;16.67;;;11.43;;
485;SDS011;229;48.734;9.340;2024-01-30T12:31:47;20.80;;;12.10;;
485;SDS011;229;48.734;9.340;2024-01-30T12:34:14;18.90;;;13.00;;
485;SDS011;229;48.734;9.340;2024-01-30T12:36:42;22.15;;;11.52;;
485;SDS011;229;48.734;9.340;2024-01-30T12:39:10;24.17;;;12.80;;
485;SDS011;229;48.734;9.340;2024-01-30T12:41:39;19.80;;;12.50;;
485;SDS011;229;48.734;9.340;2024-01-30T12:44:08;20.45;;;13.05;;
485;SDS011;229;48.734;9.340;2024-01-30T12:46:35;17.70;;;11.07;;
485;SDS011;229;48.734;9.340;2024-01-30T12:49:02;18.58;;;11.20;;
485;SDS011;229;48.734;9.340;2024-01-30T12:51:29;19.15;;;10.45;;
485;SDS011;229;48.734;9.340;2024-01-30T12:53:56;17.42;;;10.70;;
485;SDS011;229;48.734;9.340;2024-01-30T12:56:24;29.85;;;10.60;;
485;SDS011;229;48.734;9.340;2024-01-30T12:58:51;22.33;;;10.57;;
485;SDS011;229;48.734;9.340;2024-01-30T13:01:19;18.77;;;11.18;;
485;SDS011;229;48.734;9.340;2024-01-30T13:03:47;22.60;;;11.10;;
485;SDS011;229;48.734;9.340;2024-01-30T13:06:14;20.65;;;10.10;;
485;SDS011;229;48.734;9.340;2024-01-30T13:08:41;22.98;;;12.13;;
485;SDS011;229;48.734;9.340;2024-01-30T13:11:08;21.17;;;10.77;;
485;SDS011;229;48.734;9.340;2024-01-30T13:13:37;19.80;;;11.52;;
485;SDS011;229;48.734;9.340;2024-01-30T13:16:04;18.95;;;10.23;;
485;SDS011;229;48.734;9.340;2024-01-30T13:18:33;15.63;;;10.73;;
485;SDS011;229;48.734;9.340;2024-01-30T13:21:00;14.50;;;8.80;;
485;SDS011;229;48.734;9.340;2024-01-30T13:23:28;17.05;;;10.90;;
485;SDS011;229;48.734;9.340;2024-01-30T13:25:55;18.08;;;11.35;;
485;SDS011;229;48.734;9.340;2024-01-30T13:28:23;18.52;;;10.05;;
485;SDS011;229;48.734;9.340;2024-01-30T13:30:51;16.45;;;10.15;;
485;SDS011;229;48.734;9.340;2024-01-30T13:33:18;16.35;;;10.43;;
485;SDS011;229;48.734;9.340;2024-01-30T13:35:46;19.02;;;10.55;;
485;SDS011;229;48.734;9.340;2024-01-30T13:38:15;22.08;;;12.27;;
485;SDS011;229;48.734;9.340;2024-01-30T13:40:42;17.48;;;11.48;;
485;SDS011;229;48.734;9.340;2024-01-30T13:43:10;15.27;;;10.23;;
485;SDS011;229;48.734;9.340;2024-01-30T13:45:37;17.23;;;10.80;;
485;SDS011;229;48.734;9.340;2024-01-30T13:48:04;22.02;;;10.15;;
485;SDS011;229;48.734;9.340;2024-01-30T13:50:32;15.95;;;10.30;;
485;SDS011;229;48.734;9.340;2024-01-30T13:53:01;16.55;;;9.95;;
485;SDS011;229;48.734;9.340;2024-01-30T13:55:28;18.88;;;10.32;;
485;SDS011;229;48.734;9.340;2024-01-30T13:57:55;13.40;;;10.00;;
485;SDS011;229;48.734;9.340;2024-01-30T14:00:23;20.23;;;11.20;;
485;SDS011;229;48.734;9.340;2024-01-30T14:02:51;21.13;;;10.10;;
485;SDS011;229;48.734;9.340;2024-01-30T14:05:19;19.00;;;9.38;;
485;SDS011;229;48.734;9.340;2024-01-30T14:07:47;14.40;;;10.32;;
485;SDS011;229;48.734;9.340;2024-01-30T14:10:16;18.05;;;8.93;;
485;SDS011;229;48.734;9.340;2024-01-30T14:12:43;16.05;;;9.52;;
485;SDS011;229;48.734;9.340;2024-01-30T14:15:12;16.30;;;8.90;;
485;SDS011;229;48.734;9.340;2024-01-30T14:17:39;21.55;;;9.15;;
485;SDS011;229;48.734;9.340;2024-01-30T14:20:07;12.50;;;8.48;;
485;SDS011;229;48.734;9.340;2024-01-30T14:22:35;15.63;;;9.18;;
485;SDS011;229;48.734;9.340;2024-01-30T14:25:03;14.32;;;9.30;;
485;SDS011;229;48.734;9.340;2024-01-30T14:27:32;21.75;;;10.95;;
485;SDS011;229;48.734;9.340;2024-01-30T14:29:59;24.02;;;13.30;;
485;SDS011;229;48.734;9.340;2024-01-30T14:32:26;19.98;;;10.68;;
485;SDS011;229;48.734;9.340;2024-01-30T14:34:53;16.20;;;9.20;;
485;SDS011;229;48.734;9.340;2024-01-30T14:37:21;22.90;;;10.18;;
485;SDS011;229;48.734;9.340;2024-01-30T14:39:48;18.48;;;11.02;;
485;SDS011;229;48.734;9.340;2024-01-30T14:42:15;17.73;;;10.80;;
485;SDS011;229;48.734;9.340;2024-01-30T14:44:44;19.50;;;10.35;;
485;SDS011;229;48.734;9.340;2024-01-30T14:47:11;28.90;;;10.10;;
485;SDS011;229;48.734;9.340;2024-01-30T14:49:39;22.08;;;10.50;;
485;SDS011;229;48.734;9.340;2024-01-30T14:52:06;17.10;;;9.27;;
485;SDS011;229;48.734;9.340;2024-01-30T14:54:35;14.57;;;9.65;;
485;SDS011;229;48.734;9.340;2024-01-30T14:57:03;19.25;;;11.00;;
485;SDS011;229;48.734;9.340;2024-01-30T14:59:30;14.07;;;9.00;;
485;SDS011;229;48.734;9.340;2024-01-30T15:02:00;15.77;;;9.20;;
485;SDS011;229;48.734;9.340;2024-01-30T15:04:28;19.58;;;11.20;;
485;SDS011;229;48.734;9.340;2024-01-30T15:06:55;18.48;;;11.80;;
485;SDS011;229;48.734;9.340;2024-01-30T15:09:22;18.00;;;9.93;;
485;SDS011;229;48.734;9.340;2024-01-30T15:11:51;17.80;;;8.57;;
485;SDS011;229;48.734;9.340;2024-01-30T15:14:18;19.75;;;9.00;;
485;SDS011;229;48.734;9.340;2024-01-30T15:16:45;14.38;;;9.45;;
485;SDS011;229;48.734;9.340;2024-01-30T15:19:14;23.58;;;10.48;;
485;SDS011;229;48.734;9.340;2024-01-30T15:21:41;16.33;;;9.38;;